sensor_id;sensor_type;location;lat;lon;timestamp;P1;durP1;ratioP1;P2;durP2;ratioP2
10309;SDS011;5200;43.236;27.986;2023-08-06T00:00:53;19.08;;;12.57;;
10309;SDS011;5200;43.236;27.986;2023-08-06T00:03:20;11.93;;;10.25;;
10309;SDS011;5200;43.236;27.986;2023-08-06T00:05:47;14.70;;;11.70;;
10309;SDS011;5200;43.236;27.986;2023-08-06T00:08:14;15.73;;;11.40;;
10309;SDS011;5200;43.236;27.986;2023-08-06T00:10:41;21.00;;;11.88;;
10309;SDS011;5200;43.236;27.986;2023-08-06T00:13:07;14.60;;;10.70;;
10309;SDS011;5200;43.236;27.986;2023-08-06T00:15:34;18.77;;;11.68;;
10309;SDS011;5200;43.236;27.986;2023-08-06T00:18:03;15.88;;;10.55;;
10309;SDS011;5200;43.236;27.986;2023-08-06T00:20:30;14.77;;;10.68;;
10309;SDS011;5200;43.236;27.986;2023-08-06T00:22:57;15.57;;;10.75;;
10309;SDS011;5200;43.236;27.986;2023-08-06T00:25:23;21.38;;;11.40;;
10309;SDS011;5200;43.236;27.986;2023-08-06T00:27:50;12.95;;;11.07;;
10309;SDS011;5200;43.236;27.986;2023-08-06T00:30:17;13.13;;;11.82;;
10309;SDS011;5200;43.236;27.986;2023-08-06T00:32:44;15.35;;;11.68;;
10309;SDS011;5200;43.236;27.986;2023-08-06T00:35:12;17.27;;;11.90;;
10309;SDS011;5200;43.236;27.986;2023-08-06T00:37:39;18.92;;;12.80;;
10309;SDS011;5200;43.236;27.986;2023-08-06T00:40:06;17.98;;;12.35;;
10309;SDS011;5200;43.236;27.986;2023-08-06T00:42:34;15.57;;;12.38;;
10309;SDS011;5200;43.236;27.986;2023-08-06T00:45:01;17.40;;;11.93;;
10309;SDS011;5200;43.236;27.986;2023-08-06T00:47:28;20.23;;;13.35;;
10309;SDS011;5200;43.236;27.986;2023-08-06T00:49:55;16.55;;;12.70;;
10309;SDS011;5200;43.236;27.986;2023-08-06T00:52:23;16.60;;;12.23;;
10309;SDS011;5200;43.236;27.986;2023-08-06T00:54:50;16.88;;;11.80;;
10309;SDS011;5200;43.236;27.986;2023-08-06T00:57:17;18.95;;;11.18;;
10309;SDS011;5200;43.236;27.986;2023-08-06T00:59:45;15.68;;;10.80;;
10309;SDS011;5200;43.236;27.986;2023-08-06T01:02:12;15.75;;;11.18;;
10309;SDS011;5200;43.236;27.986;2023-08-06T01:04:39;23.27;;;11.02;;
10309;SDS011;5200;43.236;27.986;2023-08-06T01:09:57;19.10;;;11.23;;
10309;SDS011;5200;43.236;27.986;2023-08-06T01:12:43;14.10;;;10.52;;
10309;SDS011;5200;43.236;27.986;2023-08-06T01:15:16;14.70;;;10.93;;
10309;SDS011;5200;43.236;27.986;2023-08-06T01:17:48;15.27;;;11.43;;
10309;SDS011;5200;43.236;27.986;2023-08-06T01:20:14;16.75;;;11.77;;
10309;SDS011;5200;43.236;27.986;2023-08-06T01:22:43;17.05;;;10.48;;
10309;SDS011;5200;43.236;27.986;2023-08-06T01:25:10;16.35;;;11.77;;
10309;SDS011;5200;43.236;27.986;2023-08-06T01:27:42;14.05;;;10.85;;
10309;SDS011;5200;43.236;27.986;2023-08-06T01:30:13;14.45;;;10.80;;
10309;SDS011;5200;43.236;27.986;2023-08-06T01:32:44;15.65;;;11.20;;
10309;SDS011;5200;43.236;27.986;2023-08-06T01:35:13;17.75;;;12.20;;
10309;SDS011;5200;43.236;27.986;2023-08-06T01:37:43;15.70;;;11.70;;
10309;SDS011;5200;43.236;27.986;2023-08-06T01:40:12;15.75;;;11.90;;
10309;SDS011;5200;43.236;27.986;2023-08-06T01:42:40;14.60;;;12.10;;
10309;SDS011;5200;43.236;27.986;2023-08-06T01:45:07;16.63;;;11.63;;
10309;SDS011;5200;43.236;27.986;2023-08-06T01:47:35;12.98;;;11.35;;
10309;SDS011;5200;43.236;27.986;2023-08-06T01:50:02;18.60;;;11.32;;
10309;SDS011;5200;43.236;27.986;2023-08-06T01:52:30;20.52;;;11.98;;
10309;SDS011;5200;43.236;27.986;2023-08-06T01:54:58;17.40;;;11.90;;
10309;SDS011;5200;43.236;27.986;2023-08-06T01:57:25;17.63;;;12.27;;
10309;SDS011;5200;43.236;27.986;2023-08-06T01:59:52;17.42;;;11.57;;
10309;SDS011;5200;43.236;27.986;2023-08-06T02:02:19;16.30;;;12.00;;
10309;SDS011;5200;43.236;27.986;2023-08-06T02:04:46;16.88;;;12.57;;
10309;SDS011;5200;43.236;27.986;2023-08-06T02:07:12;15.65;;;11.45;;
10309;SDS011;5200;43.236;27.986;2023-08-06T02:09:39;17.98;;;12.10;;
10309;SDS011;5200;43.236;27.986;2023-08-06T02:12:08;23.33;;;13.35;;
10309;SDS011;5200;43.236;27.986;2023-08-06T02:14:35;15.77;;;11.93;;
10309;SDS011;5200;43.236;27.986;2023-08-06T02:17:01;13.40;;;11.52;;
10309;SDS011;5200;43.236;27.986;2023-08-06T02:19:28;17.77;;;11.93;;
10309;SDS011;5200;43.236;27.986;2023-08-06T02:21:55;21.77;;;11.50;;
10309;SDS011;5200;43.236;27.986;2023-08-06T02:24:23;21.45;;;11.60;;
10309;SDS011;5200;43.236;27.986;2023-08-06T02:26:49;17.05;;;11.75;;
10309;SDS011;5200;43.236;27.986;2023-08-06T02:29:22;16.38;;;10.77;;
10309;SDS011;5200;43.236;27.986;2023-08-06T02:31:48;18.27;;;10.82;;
10309;SDS011;5200;43.236;27.986;2023-08-06T02:34:15;16.23;;;11.77;;
10309;SDS011;5200;43.236;27.986;2023-08-06T02:36:42;13.68;;;11.73;;
10309;SDS011;5200;43.236;27.986;2023-08-06T02:39:09;18.15;;;12.85;;
10309;SDS011;5200;43.236;27.986;2023-08-06T02:41:36;23.08;;;12.43;;
10309;SDS011;5200;43.236;27.986;2023-08-06T02:44:02;24.40;;;13.57;;
10309;SDS011;5200;43.236;27.986;2023-08-06T02:46:31;18.70;;;12.00;;
10309;SDS011;5200;43.236;27.986;2023-08-06T02:48:58;17.08;;;13.10;;
10309;SDS011;5200;43.236;27.986;2023-08-06T02:51:25;19.42;;;13.88;;
10309;SDS011;5200;43.236;27.986;2023-08-06T02:53:51;22.63;;;12.25;;
10309;SDS011;5200;43.236;27.986;2023-08-06T02:56:18;14.15;;;12.60;;
10309;SDS011;5200;43.236;27.986;2023-08-06T02:58:46;17.70;;;12.50;;
10309;SDS011;5200;43.236;27.986;2023-08-06T03:01:13;22.05;;;12.15;;
10309;SDS011;5200;43.236;27.986;2023-08-06T03:03:41;16.50;;;10.80;;
10309;SDS011;5200;43.236;27.986;2023-08-06T03:06:08;11.90;;;10.80;;
10309;SDS011;5200;43.236;27.986;2023-08-06T03:08:35;17.90;;;10.57;;
10309;SDS011;5200;43.236;27.986;2023-08-06T03:11:02;13.65;;;10.73;;
10309;SDS011;5200;43.236;27.986;2023-08-06T03:13:29;17.90;;;14.65;;
10309;SDS011;5200;43.236;27.986;2023-08-06T03:15:57;44.58;;;39.80;;
10309;SDS011;5200;43.236;27.986;2023-08-06T03:18:24;21.65;;;13.70;;
10309;SDS011;5200;43.236;27.986;2023-08-06T03:20:53;14.95;;;11.70;;
10309;SDS011;5200;43.236;27.986;2023-08-06T03:23:20;20.75;;;12.45;;
10309;SDS011;5200;43.236;27.986;2023-08-06T03:25:47;17.45;;;13.85;;
10309;SDS011;5200;43.236;27.986;2023-08-06T03:28:14;37.70;;;22.08;;
10309;SDS011;5200;43.236;27.986;2023-08-06T03:30:41;11.38;;;9.10;;
10309;SDS011;5200;43.236;27.986;2023-08-06T03:33:08;49.85;;;22.45;;
10309;SDS011;5200;43.236;27.986;2023-08-06T03:35:35;29.95;;;15.73;;
10309;SDS011;5200;43.236;27.986;2023-08-06T03:38:03;42.38;;;20.02;;
10309;SDS011;5200;43.236;27.986;2023-08-06T03:40:30;66.35;;;36.33;;
10309;SDS011;5200;43.236;27.986;2023-08-06T03:42:57;20.67;;;13.65;;
10309;SDS011;5200;43.236;27.986;2023-08-06T03:45:24;12.95;;;9.48;;
10309;SDS011;5200;43.236;27.986;2023-08-06T03:47:51;20.95;;;10.43;;
10309;SDS011;5200;43.236;27.986;2023-08-06T03:50:18;24.20;;;20.80;;
10309;SDS011;5200;43.236;27.986;2023-08-06T03:52:45;17.98;;;16.27;;
10309;SDS011;5200;43.236;27.986;2023-08-06T03:55:13;12.02;;;8.20;;
10309;SDS011;5200;43.236;27.986;2023-08-06T03:57:40;10.52;;;6.53;;
10309;SDS011;5200;43.236;27.986;2023-08-06T04:00:07;8.85;;;6.80;;
10309;SDS011;5200;43.236;27.986;2023-08-06T04:02:34;10.30;;;6.95;;
10309;SDS011;5200;43.236;27.986;2023-08-06T04:05:01;9.40;;;6.10;;
10309;SDS011;5200;43.236;27.986;2023-08-06T04:07:28;10.02;;;5.63;;
10309;SDS011;5200;43.236;27.986;2023-08-06T04:09:56;8.40;;;5.47;;
10309;SDS011;5200;43.236;27.986;2023-08-06T04:12:25;8.68;;;6.10;;
10309;SDS011;5200;43.236;27.986;2023-08-06T04:14:53;9.40;;;5.57;;
10309;SDS011;5200;43.236;27.986;2023-08-06T04:17:21;6.47;;;5.18;;
10309;SDS011;5200;43.236;27.986;2023-08-06T04:19:49;7.93;;;5.50;;
10309;SDS011;5200;43.236;27.986;2023-08-06T04:22:17;8.48;;;5.57;;
10309;SDS011;5200;43.236;27.986;2023-08-06T04:24:44;11.13;;;6.32;;
10309;SDS011;5200;43.236;27.986;2023-08-06T04:27:11;11.10;;;6.13;;
10309;SDS011;5200;43.236;27.986;2023-08-06T04:29:40;11.23;;;5.50;;
10309;SDS011;5200;43.236;27.986;2023-08-06T04:32:07;9.85;;;5.60;;
10309;SDS011;5200;43.236;27.986;2023-08-06T04:34:35;11.18;;;5.55;;
10309;SDS011;5200;43.236;27.986;2023-08-06T04:37:03;8.75;;;6.00;;
10309;SDS011;5200;43.236;27.986;2023-08-06T04:39:31;6.32;;;5.22;;
10309;SDS011;5200;43.236;27.986;2023-08-06T04:41:58;6.95;;;5.03;;
10309;SDS011;5200;43.236;27.986;2023-08-06T04:44:24;8.10;;;4.82;;
10309;SDS011;5200;43.236;27.986;2023-08-06T04:46:53;9.07;;;4.63;;
10309;SDS011;5200;43.236;27.986;2023-08-06T04:49:20;5.10;;;4.60;;
10309;SDS011;5200;43.236;27.986;2023-08-06T04:51:47;7.47;;;4.38;;
10309;SDS011;5200;43.236;27.986;2023-08-06T04:54:14;6.03;;;4.50;;
10309;SDS011;5200;43.236;27.986;2023-08-06T04:56:41;10.35;;;5.15;;
10309;SDS011;5200;43.236;27.986;2023-08-06T04:59:07;7.35;;;5.03;;
10309;SDS011;5200;43.236;27.986;2023-08-06T05:01:34;6.90;;;4.70;;
10309;SDS011;5200;43.236;27.986;2023-08-06T05:04:03;8.65;;;4.32;;
10309;SDS011;5200;43.236;27.986;2023-08-06T05:06:30;10.88;;;4.55;;
10309;SDS011;5200;43.236;27.986;2023-08-06T05:08:57;9.77;;;4.93;;
10309;SDS011;5200;43.236;27.986;2023-08-06T05:11:23;8.23;;;3.95;;
10309;SDS011;5200;43.236;27.986;2023-08-06T05:13:50;5.65;;;4.32;;
10309;SDS011;5200;43.236;27.986;2023-08-06T05:16:17;8.02;;;4.30;;
10309;SDS011;5200;43.236;27.986;2023-08-06T05:18:44;6.75;;;4.22;;
10309;SDS011;5200;43.236;27.986;2023-08-06T05:21:12;8.68;;;4.68;;
10309;SDS011;5200;43.236;27.986;2023-08-06T05:23:39;7.13;;;4.30;;
10309;SDS011;5200;43.236;27.986;2023-08-06T05:26:06;9.48;;;5.15;;
10309;SDS011;5200;43.236;27.986;2023-08-06T05:28:33;6.03;;;4.20;;
10309;SDS011;5200;43.236;27.986;2023-08-06T05:31:05;6.97;;;4.60;;
10309;SDS011;5200;43.236;27.986;2023-08-06T05:33:33;5.22;;;3.78;;
10309;SDS011;5200;43.236;27.986;2023-08-06T05:36:00;6.68;;;4.55;;
10309;SDS011;5200;43.236;27.986;2023-08-06T05:38:29;5.78;;;4.32;;
10309;SDS011;5200;43.236;27.986;2023-08-06T05:40:56;7.93;;;3.95;;
10309;SDS011;5200;43.236;27.986;2023-08-06T05:43:23;7.70;;;4.40;;
10309;SDS011;5200;43.236;27.986;2023-08-06T05:45:50;6.25;;;4.30;;
10309;SDS011;5200;43.236;27.986;2023-08-06T05:48:17;6.65;;;4.10;;
10309;SDS011;5200;43.236;27.986;2023-08-06T05:50:43;9.13;;;5.78;;
10309;SDS011;5200;43.236;27.986;2023-08-06T05:53:10;6.07;;;3.97;;
10309;SDS011;5200;43.236;27.986;2023-08-06T05:55:39;7.18;;;3.80;;
10309;SDS011;5200;43.236;27.986;2023-08-06T05:58:06;6.18;;;4.50;;
10309;SDS011;5200;43.236;27.986;2023-08-06T06:00:33;7.85;;;4.18;;
10309;SDS011;5200;43.236;27.986;2023-08-06T06:03:00;5.38;;;3.92;;
10309;SDS011;5200;43.236;27.986;2023-08-06T06:05:28;6.65;;;4.20;;
10309;SDS011;5200;43.236;27.986;2023-08-06T06:07:54;7.18;;;4.20;;
10309;SDS011;5200;43.236;27.986;2023-08-06T06:10:21;7.05;;;4.32;;
10309;SDS011;5200;43.236;27.986;2023-08-06T06:12:49;8.80;;;4.32;;
10309;SDS011;5200;43.236;27.986;2023-08-06T06:15:16;7.93;;;3.92;;
10309;SDS011;5200;43.236;27.986;2023-08-06T06:17:43;6.13;;;3.60;;
10309;SDS011;5200;43.236;27.986;2023-08-06T06:20:10;6.35;;;4.00;;
10309;SDS011;5200;43.236;27.986;2023-08-06T06:22:37;7.93;;;4.28;;
10309;SDS011;5200;43.236;27.986;2023-08-06T06:25:04;8.75;;;4.38;;
10309;SDS011;5200;43.236;27.986;2023-08-06T06:27:32;9.07;;;4.13;;
10309;SDS011;5200;43.236;27.986;2023-08-06T06:30:00;8.70;;;4.10;;
10309;SDS011;5200;43.236;27.986;2023-08-06T06:32:28;6.70;;;3.90;;
10309;SDS011;5200;43.236;27.986;2023-08-06T06:34:54;6.53;;;4.25;;
10309;SDS011;5200;43.236;27.986;2023-08-06T06:37:21;12.75;;;4.13;;
10309;SDS011;5200;43.236;27.986;2023-08-06T06:39:48;7.15;;;4.20;;
10309;SDS011;5200;43.236;27.986;2023-08-06T06:42:15;6.35;;;4.40;;
10309;SDS011;5200;43.236;27.986;2023-08-06T06:44:42;10.57;;;4.30;;
10309;SDS011;5200;43.236;27.986;2023-08-06T06:47:10;5.88;;;3.72;;
10309;SDS011;5200;43.236;27.986;2023-08-06T06:49:37;11.25;;;4.10;;
10309;SDS011;5200;43.236;27.986;2023-08-06T06:52:04;5.30;;;3.78;;
10309;SDS011;5200;43.236;27.986;2023-08-06T06:54:32;7.47;;;4.18;;
10309;SDS011;5200;43.236;27.986;2023-08-06T06:56:58;5.80;;;3.72;;
10309;SDS011;5200;43.236;27.986;2023-08-06T06:59:25;4.72;;;3.88;;
10309;SDS011;5200;43.236;27.986;2023-08-06T07:01:52;7.15;;;4.03;;
10309;SDS011;5200;43.236;27.986;2023-08-06T07:04:20;6.50;;;3.85;;
10309;SDS011;5200;43.236;27.986;2023-08-06T07:06:47;6.65;;;4.07;;
10309;SDS011;5200;43.236;27.986;2023-08-06T07:09:14;5.15;;;3.88;;
10309;SDS011;5200;43.236;27.986;2023-08-06T07:11:41;6.93;;;3.67;;
10309;SDS011;5200;43.236;27.986;2023-08-06T07:14:09;4.90;;;3.80;;
10309;SDS011;5200;43.236;27.986;2023-08-06T07:16:36;6.40;;;4.20;;
10309;SDS011;5200;43.236;27.986;2023-08-06T07:19:02;6.20;;;3.97;;
10309;SDS011;5200;43.236;27.986;2023-08-06T07:21:31;5.40;;;3.83;;
10309;SDS011;5200;43.236;27.986;2023-08-06T07:23:58;9.15;;;4.20;;
10309;SDS011;5200;43.236;27.986;2023-08-06T07:26:25;5.18;;;3.72;;
10309;SDS011;5200;43.236;27.986;2023-08-06T07:28:52;5.40;;;3.90;;
10309;SDS011;5200;43.236;27.986;2023-08-06T07:31:19;7.25;;;3.83;;
10309;SDS011;5200;43.236;27.986;2023-08-06T07:33:46;6.82;;;3.75;;
10309;SDS011;5200;43.236;27.986;2023-08-06T07:36:13;4.97;;;3.80;;
10309;SDS011;5200;43.236;27.986;2023-08-06T07:38:42;7.93;;;3.53;;
10309;SDS011;5200;43.236;27.986;2023-08-06T07:41:09;8.82;;;3.88;;
10309;SDS011;5200;43.236;27.986;2023-08-06T07:43:36;7.07;;;3.60;;
10309;SDS011;5200;43.236;27.986;2023-08-06T07:46:03;5.03;;;3.10;;
10309;SDS011;5200;43.236;27.986;2023-08-06T07:48:30;6.43;;;3.72;;
10309;SDS011;5200;43.236;27.986;2023-08-06T07:50:57;4.90;;;3.60;;
10309;SDS011;5200;43.236;27.986;2023-08-06T07:53:25;6.25;;;3.90;;
10309;SDS011;5200;43.236;27.986;2023-08-06T07:55:56;5.95;;;3.90;;
10309;SDS011;5200;43.236;27.986;2023-08-06T07:58:23;11.80;;;3.80;;
10309;SDS011;5200;43.236;27.986;2023-08-06T08:00:51;6.82;;;3.85;;
10309;SDS011;5200;43.236;27.986;2023-08-06T08:03:18;6.00;;;3.55;;
10309;SDS011;5200;43.236;27.986;2023-08-06T08:05:45;4.43;;;3.22;;
10309;SDS011;5200;43.236;27.986;2023-08-06T08:08:11;7.22;;;3.50;;
10309;SDS011;5200;43.236;27.986;2023-08-06T08:10:38;7.43;;;3.72;;
10309;SDS011;5200;43.236;27.986;2023-08-06T08:13:07;6.18;;;3.75;;
10309;SDS011;5200;43.236;27.986;2023-08-06T08:15:34;4.75;;;3.50;;
10309;SDS011;5200;43.236;27.986;2023-08-06T08:18:00;5.03;;;3.63;;
10309;SDS011;5200;43.236;27.986;2023-08-06T08:20:27;5.45;;;3.67;;
10309;SDS011;5200;43.236;27.986;2023-08-06T08:22:57;10.93;;;3.90;;
10309;SDS011;5200;43.236;27.986;2023-08-06T08:25:26;9.27;;;5.00;;
10309;SDS011;5200;43.236;27.986;2023-08-06T08:27:53;7.93;;;3.88;;
10309;SDS011;5200;43.236;27.986;2023-08-06T08:30:21;7.38;;;4.30;;
10309;SDS011;5200;43.236;27.986;2023-08-06T08:32:50;5.47;;;3.97;;
10309;SDS011;5200;43.236;27.986;2023-08-06T08:35:17;7.22;;;3.63;;
10309;SDS011;5200;43.236;27.986;2023-08-06T08:37:44;6.57;;;3.40;;
10309;SDS011;5200;43.236;27.986;2023-08-06T08:40:11;6.57;;;3.92;;
10309;SDS011;5200;43.236;27.986;2023-08-06T08:42:38;13.38;;;4.20;;
10309;SDS011;5200;43.236;27.986;2023-08-06T08:45:05;7.68;;;3.58;;
10309;SDS011;5200;43.236;27.986;2023-08-06T08:47:40;7.70;;;3.85;;
10309;SDS011;5200;43.236;27.986;2023-08-06T08:50:08;7.75;;;3.40;;
10309;SDS011;5200;43.236;27.986;2023-08-06T08:52:36;8.40;;;3.40;;
10309;SDS011;5200;43.236;27.986;2023-08-06T08:55:04;4.78;;;3.65;;
10309;SDS011;5200;43.236;27.986;2023-08-06T08:57:32;4.60;;;3.10;;
10309;SDS011;5200;43.236;27.986;2023-08-06T08:59:59;6.50;;;3.78;;
10309;SDS011;5200;43.236;27.986;2023-08-06T09:02:28;4.90;;;3.15;;
10309;SDS011;5200;43.236;27.986;2023-08-06T09:04:57;4.82;;;3.83;;
10309;SDS011;5200;43.236;27.986;2023-08-06T09:07:27;6.75;;;3.78;;
10309;SDS011;5200;43.236;27.986;2023-08-06T09:09:58;4.70;;;3.28;;
10309;SDS011;5200;43.236;27.986;2023-08-06T09:12:29;5.53;;;3.20;;
10309;SDS011;5200;43.236;27.986;2023-08-06T09:14:55;3.95;;;3.47;;
10309;SDS011;5200;43.236;27.986;2023-08-06T09:17:22;4.55;;;3.65;;
10309;SDS011;5200;43.236;27.986;2023-08-06T09:19:49;11.02;;;3.40;;
10309;SDS011;5200;43.236;27.986;2023-08-06T09:22:18;7.18;;;3.83;;
10309;SDS011;5200;43.236;27.986;2023-08-06T09:24:44;3.80;;;3.30;;
10309;SDS011;5200;43.236;27.986;2023-08-06T09:30:34;6.57;;;3.42;;
10309;SDS011;5200;43.236;27.986;2023-08-06T09:33:02;5.72;;;3.63;;
10309;SDS011;5200;43.236;27.986;2023-08-06T09:35:29;7.05;;;3.65;;
10309;SDS011;5200;43.236;27.986;2023-08-06T09:38:05;7.38;;;3.88;;
10309;SDS011;5200;43.236;27.986;2023-08-06T09:40:34;8.90;;;3.40;;
10309;SDS011;5200;43.236;27.986;2023-08-06T09:43:01;6.15;;;3.67;;
10309;SDS011;5200;43.236;27.986;2023-08-06T09:45:31;8.00;;;3.75;;
10309;SDS011;5200;43.236;27.986;2023-08-06T09:47:59;4.75;;;3.33;;
10309;SDS011;5200;43.236;27.986;2023-08-06T09:50:28;5.60;;;3.72;;
10309;SDS011;5200;43.236;27.986;2023-08-06T09:52:56;6.50;;;3.60;;
10309;SDS011;5200;43.236;27.986;2023-08-06T09:55:25;9.25;;;4.10;;
10309;SDS011;5200;43.236;27.986;2023-08-06T09:57:53;5.70;;;3.53;;
10309;SDS011;5200;43.236;27.986;2023-08-06T10:00:20;6.07;;;3.80;;
10309;SDS011;5200;43.236;27.986;2023-08-06T10:02:48;4.93;;;3.65;;
10309;SDS011;5200;43.236;27.986;2023-08-06T10:05:19;6.05;;;3.25;;
10309;SDS011;5200;43.236;27.986;2023-08-06T10:07:47;5.43;;;3.83;;
10309;SDS011;5200;43.236;27.986;2023-08-06T10:10:16;5.60;;;3.38;;
10309;SDS011;5200;43.236;27.986;2023-08-06T10:12:44;7.07;;;3.65;;
10309;SDS011;5200;43.236;27.986;2023-08-06T10:15:15;6.47;;;3.60;;
10309;SDS011;5200;43.236;27.986;2023-08-06T10:17:47;7.95;;;3.50;;
10309;SDS011;5200;43.236;27.986;2023-08-06T10:20:15;7.50;;;3.88;;
10309;SDS011;5200;43.236;27.986;2023-08-06T10:22:42;7.90;;;3.88;;
10309;SDS011;5200;43.236;27.986;2023-08-06T10:25:10;5.75;;;3.50;;
10309;SDS011;5200;43.236;27.986;2023-08-06T10:27:39;7.10;;;3.38;;
10309;SDS011;5200;43.236;27.986;2023-08-06T10:30:25;5.15;;;3.70;;
10309;SDS011;5200;43.236;27.986;2023-08-06T10:32:53;6.60;;;3.65;;
10309;SDS011;5200;43.236;27.986;2023-08-06T10:35:29;8.77;;;3.85;;
10309;SDS011;5200;43.236;27.986;2023-08-06T10:38:03;4.95;;;3.60;;
10309;SDS011;5200;43.236;27.986;2023-08-06T10:40:31;3.97;;;3.53;;
10309;SDS011;5200;43.236;27.986;2023-08-06T10:42:58;4.75;;;3.65;;
10309;SDS011;5200;43.236;27.986;2023-08-06T10:45:27;6.05;;;4.47;;
10309;SDS011;5200;43.236;27.986;2023-08-06T10:47:55;6.22;;;4.00;;
10309;SDS011;5200;43.236;27.986;2023-08-06T10:50:23;5.50;;;3.42;;
10309;SDS011;5200;43.236;27.986;2023-08-06T10:52:50;8.07;;;3.67;;
10309;SDS011;5200;43.236;27.986;2023-08-06T10:55:22;5.45;;;4.07;;
10309;SDS011;5200;43.236;27.986;2023-08-06T10:57:51;7.43;;;3.95;;
10309;SDS011;5200;43.236;27.986;2023-08-06T11:00:20;5.28;;;4.18;;
10309;SDS011;5200;43.236;27.986;2023-08-06T11:02:49;4.25;;;3.50;;
10309;SDS011;5200;43.236;27.986;2023-08-06T11:05:16;8.60;;;4.03;;
10309;SDS011;5200;43.236;27.986;2023-08-06T11:07:43;8.27;;;3.83;;
10309;SDS011;5200;43.236;27.986;2023-08-06T11:10:11;8.65;;;3.88;;
10309;SDS011;5200;43.236;27.986;2023-08-06T11:12:39;4.80;;;3.60;;
10309;SDS011;5200;43.236;27.986;2023-08-06T11:15:19;8.77;;;4.28;;
10309;SDS011;5200;43.236;27.986;2023-08-06T11:17:51;7.38;;;4.30;;
10309;SDS011;5200;43.236;27.986;2023-08-06T11:20:18;8.10;;;3.78;;
10309;SDS011;5200;43.236;27.986;2023-08-06T11:22:47;5.57;;;4.32;;
10309;SDS011;5200;43.236;27.986;2023-08-06T11:32:06;5.10;;;4.25;;
10309;SDS011;5200;43.236;27.986;2023-08-06T11:34:35;5.43;;;3.92;;
10309;SDS011;5200;43.236;27.986;2023-08-06T11:37:03;8.60;;;4.30;;
10309;SDS011;5200;43.236;27.986;2023-08-06T11:39:31;6.78;;;3.85;;
10309;SDS011;5200;43.236;27.986;2023-08-06T11:41:58;8.02;;;4.68;;
10309;SDS011;5200;43.236;27.986;2023-08-06T11:44:29;5.70;;;3.97;;
10309;SDS011;5200;43.236;27.986;2023-08-06T11:46:58;6.57;;;3.95;;
10309;SDS011;5200;43.236;27.986;2023-08-06T11:49:43;6.07;;;4.05;;
10309;SDS011;5200;43.236;27.986;2023-08-06T11:52:15;7.53;;;4.32;;
10309;SDS011;5200;43.236;27.986;2023-08-06T11:54:44;5.95;;;3.95;;
10309;SDS011;5200;43.236;27.986;2023-08-06T11:57:12;6.60;;;3.90;;
10309;SDS011;5200;43.236;27.986;2023-08-06T11:59:39;7.15;;;4.60;;
10309;SDS011;5200;43.236;27.986;2023-08-06T12:02:07;4.25;;;3.85;;
10309;SDS011;5200;43.236;27.986;2023-08-06T12:07:30;6.18;;;4.75;;
10309;SDS011;5200;43.236;27.986;2023-08-06T12:09:57;10.65;;;5.03;;
10309;SDS011;5200;43.236;27.986;2023-08-06T12:12:24;6.90;;;4.32;;
10309;SDS011;5200;43.236;27.986;2023-08-06T12:14:51;11.85;;;5.80;;
10309;SDS011;5200;43.236;27.986;2023-08-06T12:17:18;7.75;;;5.65;;
10309;SDS011;5200;43.236;27.986;2023-08-06T12:19:45;7.03;;;4.13;;
10309;SDS011;5200;43.236;27.986;2023-08-06T12:22:14;9.77;;;3.13;;
10309;SDS011;5200;43.236;27.986;2023-08-06T12:24:41;7.32;;;3.03;;
10309;SDS011;5200;43.236;27.986;2023-08-06T12:27:09;4.65;;;2.33;;
10309;SDS011;5200;43.236;27.986;2023-08-06T12:29:37;5.70;;;2.45;;
10309;SDS011;5200;43.236;27.986;2023-08-06T12:32:06;2.58;;;1.90;;
10309;SDS011;5200;43.236;27.986;2023-08-06T12:34:33;6.80;;;2.65;;
10309;SDS011;5200;43.236;27.986;2023-08-06T12:37:01;8.45;;;2.42;;
10309;SDS011;5200;43.236;27.986;2023-08-06T12:39:30;5.25;;;2.40;;
10309;SDS011;5200;43.236;27.986;2023-08-06T12:41:57;6.05;;;2.60;;
10309;SDS011;5200;43.236;27.986;2023-08-06T12:44:25;3.78;;;2.38;;
10309;SDS011;5200;43.236;27.986;2023-08-06T12:46:52;7.88;;;2.88;;
10309;SDS011;5200;43.236;27.986;2023-08-06T12:49:18;3.17;;;2.88;;
10309;SDS011;5200;43.236;27.986;2023-08-06T12:51:47;8.30;;;3.25;;
10309;SDS011;5200;43.236;27.986;2023-08-06T12:54:14;4.20;;;3.00;;
10309;SDS011;5200;43.236;27.986;2023-08-06T12:56:42;4.90;;;3.40;;
10309;SDS011;5200;43.236;27.986;2023-08-06T12:59:09;7.53;;;3.40;;
10309;SDS011;5200;43.236;27.986;2023-08-06T13:01:36;4.38;;;2.95;;
10309;SDS011;5200;43.236;27.986;2023-08-06T13:04:03;4.43;;;3.10;;
10309;SDS011;5200;43.236;27.986;2023-08-06T13:06:30;3.40;;;3.10;;
10309;SDS011;5200;43.236;27.986;2023-08-06T13:09:01;5.68;;;3.17;;
10309;SDS011;5200;43.236;27.986;2023-08-06T13:11:28;5.75;;;2.83;;
10309;SDS011;5200;43.236;27.986;2023-08-06T13:13:56;5.97;;;3.40;;
10309;SDS011;5200;43.236;27.986;2023-08-06T13:16:30;7.45;;;3.33;;
10309;SDS011;5200;43.236;27.986;2023-08-06T13:18:57;7.03;;;3.25;;
10309;SDS011;5200;43.236;27.986;2023-08-06T13:21:23;5.35;;;3.42;;
10309;SDS011;5200;43.236;27.986;2023-08-06T13:23:50;4.45;;;2.83;;
10309;SDS011;5200;43.236;27.986;2023-08-06T13:26:17;6.05;;;2.80;;
10309;SDS011;5200;43.236;27.986;2023-08-06T13:28:44;10.65;;;3.10;;
10309;SDS011;5200;43.236;27.986;2023-08-06T13:31:12;4.13;;;2.95;;
10309;SDS011;5200;43.236;27.986;2023-08-06T13:33:39;4.88;;;2.78;;
10309;SDS011;5200;43.236;27.986;2023-08-06T13:36:06;13.48;;;3.25;;
10309;SDS011;5200;43.236;27.986;2023-08-06T13:38:33;4.38;;;3.08;;
10309;SDS011;5200;43.236;27.986;2023-08-06T13:41:01;6.13;;;2.78;;
10309;SDS011;5200;43.236;27.986;2023-08-06T13:43:27;9.20;;;2.90;;
10309;SDS011;5200;43.236;27.986;2023-08-06T13:45:54;3.05;;;2.75;;
10309;SDS011;5200;43.236;27.986;2023-08-06T13:48:23;3.00;;;2.47;;
10309;SDS011;5200;43.236;27.986;2023-08-06T13:50:50;3.40;;;2.55;;
10309;SDS011;5200;43.236;27.986;2023-08-06T13:53:17;5.03;;;3.05;;
10309;SDS011;5200;43.236;27.986;2023-08-06T13:55:43;5.65;;;2.92;;
10309;SDS011;5200;43.236;27.986;2023-08-06T13:58:10;6.45;;;2.92;;
10309;SDS011;5200;43.236;27.986;2023-08-06T14:00:37;6.15;;;3.10;;
10309;SDS011;5200;43.236;27.986;2023-08-06T14:03:04;3.15;;;2.85;;
10309;SDS011;5200;43.236;27.986;2023-08-06T14:05:32;3.05;;;2.67;;
10309;SDS011;5200;43.236;27.986;2023-08-06T14:07:59;5.43;;;3.00;;
10309;SDS011;5200;43.236;27.986;2023-08-06T14:10:26;2.95;;;2.58;;
10309;SDS011;5200;43.236;27.986;2023-08-06T14:12:53;3.13;;;2.83;;
10309;SDS011;5200;43.236;27.986;2023-08-06T14:15:20;3.72;;;2.83;;
10309;SDS011;5200;43.236;27.986;2023-08-06T14:17:47;4.85;;;2.85;;
10309;SDS011;5200;43.236;27.986;2023-08-06T14:20:14;2.80;;;2.60;;
10309;SDS011;5200;43.236;27.986;2023-08-06T14:22:42;3.03;;;2.83;;
10309;SDS011;5200;43.236;27.986;2023-08-06T14:25:09;3.85;;;2.95;;
10309;SDS011;5200;43.236;27.986;2023-08-06T14:27:36;4.15;;;2.88;;
10309;SDS011;5200;43.236;27.986;2023-08-06T14:30:04;4.53;;;2.90;;
10309;SDS011;5200;43.236;27.986;2023-08-06T14:32:32;5.43;;;3.13;;
10309;SDS011;5200;43.236;27.986;2023-08-06T14:35:03;4.30;;;2.83;;
10309;SDS011;5200;43.236;27.986;2023-08-06T14:37:30;4.55;;;2.75;;
10309;SDS011;5200;43.236;27.986;2023-08-06T14:39:58;5.57;;;2.78;;
10309;SDS011;5200;43.236;27.986;2023-08-06T14:42:25;4.15;;;2.90;;
10309;SDS011;5200;43.236;27.986;2023-08-06T14:44:52;6.10;;;2.50;;
10309;SDS011;5200;43.236;27.986;2023-08-06T14:47:19;3.22;;;2.90;;
10309;SDS011;5200;43.236;27.986;2023-08-06T14:49:46;2.80;;;2.60;;
10309;SDS011;5200;43.236;27.986;2023-08-06T14:52:14;5.95;;;3.05;;
10309;SDS011;5200;43.236;27.986;2023-08-06T14:54:41;3.58;;;3.00;;
10309;SDS011;5200;43.236;27.986;2023-08-06T14:57:09;8.00;;;2.80;;
10309;SDS011;5200;43.236;27.986;2023-08-06T14:59:37;3.65;;;3.22;;